createdAt,value
2019-05-21T00:00:12.784Z,7.43
2019-05-21T00:02:41.630Z,7.67
2019-05-21T00:05:11.373Z,6.90
2019-05-21T00:07:39.758Z,6.37
2019-05-21T00:10:09.023Z,7.27
2019-05-21T00:12:37.437Z,7.30
2019-05-21T00:15:06.504Z,6.93
2019-05-21T00:17:35.418Z,7.03
2019-05-21T00:20:07.177Z,7.47
2019-05-21T00:22:36.433Z,7.20
2019-05-21T00:25:05.441Z,7.23
2019-05-21T00:27:34.292Z,7.43
2019-05-21T00:30:39.244Z,7.93
2019-05-21T00:33:44.597Z,7.30
2019-05-21T00:36:49.878Z,6.40
2019-05-21T00:39:36.304Z,7.50
2019-05-21T00:42:05.990Z,7.50
2019-05-21T00:44:35.872Z,7.03
2019-05-21T00:47:06.289Z,7.67
2019-05-21T00:49:35.199Z,7.37
2019-05-21T00:52:08.384Z,7.10
2019-05-21T00:54:34.948Z,6.50
2019-05-21T00:57:03.479Z,7.33
2019-05-21T00:59:31.858Z,7.10
2019-05-21T01:02:00.914Z,7.03
2019-05-21T01:04:29.809Z,6.67
2019-05-21T01:06:58.619Z,7.30
2019-05-21T01:09:27.469Z,7.20
2019-05-21T01:11:56.377Z,6.93
2019-05-21T01:14:25.421Z,7.03
2019-05-21T01:16:54.234Z,6.80
2019-05-21T01:19:23.225Z,7.60
2019-05-21T01:21:52.037Z,7.10
2019-05-21T01:24:20.854Z,7.40
2019-05-21T01:26:49.990Z,8.07
2019-05-21T01:29:18.812Z,7.03
2019-05-21T01:31:47.500Z,7.43
2019-05-21T01:34:16.740Z,7.57
2019-05-21T01:36:45.333Z,7.40
2019-05-21T01:39:14.232Z,7.57
2019-05-21T01:41:42.728Z,7.67
2019-05-21T01:44:11.469Z,7.67
2019-05-21T01:46:40.303Z,8.60
2019-05-21T01:49:09.295Z,7.67
2019-05-21T01:51:37.742Z,6.93
2019-05-21T01:54:06.126Z,6.87
2019-05-21T01:56:34.740Z,8.87
2019-05-21T01:59:03.739Z,7.87
2019-05-21T02:01:32.622Z,7.50
2019-05-21T02:04:01.646Z,8.30
2019-05-21T02:06:30.609Z,8.13
2019-05-21T02:08:59.423Z,8.10
2019-05-21T02:11:28.378Z,7.40
2019-05-21T02:13:56.877Z,7.77
2019-05-21T02:16:26.274Z,7.83
2019-05-21T02:18:54.781Z,7.50
2019-05-21T02:21:23.599Z,7.83
2019-05-21T02:23:52.014Z,8.23
2019-05-21T02:26:20.910Z,7.57
2019-05-21T02:28:49.857Z,7.37
2019-05-21T02:31:19.456Z,8.40
2019-05-21T02:33:48.413Z,7.53
2019-05-21T02:36:17.448Z,7.50
2019-05-21T02:38:46.304Z,7.13
2019-05-21T02:41:14.969Z,7.37
2019-05-21T02:43:43.729Z,7.83
2019-05-21T02:46:12.499Z,7.60
2019-05-21T02:48:41.530Z,8.10
2019-05-21T02:51:10.346Z,7.23
2019-05-21T02:53:39.097Z,8.00
2019-05-21T02:56:07.670Z,7.13
2019-05-21T02:58:36.414Z,7.90
2019-05-21T03:01:22.995Z,8.20
2019-05-21T03:03:51.861Z,8.33
2019-05-21T03:06:20.688Z,8.13
2019-05-21T03:08:49.700Z,7.73
2019-05-21T03:11:18.806Z,7.53
2019-05-21T03:13:47.214Z,7.67
2019-05-21T03:16:16.299Z,7.97
2019-05-21T03:18:44.764Z,7.43
2019-05-21T03:21:13.526Z,7.93
2019-05-21T03:23:42.387Z,6.77
2019-05-21T03:26:30.072Z,7.07
2019-05-21T03:28:58.677Z,8.23
2019-05-21T03:31:27.675Z,7.10
2019-05-21T03:33:56.641Z,7.50
2019-05-21T03:36:33.419Z,7.90
2019-05-21T03:38:56.123Z,7.57
2019-05-21T03:41:25.015Z,8.30
2019-05-21T03:43:54.023Z,7.60
2019-05-21T03:46:22.897Z,7.70
2019-05-21T03:48:51.751Z,7.33
2019-05-21T03:51:20.772Z,6.80
2019-05-21T03:53:49.619Z,7.63
2019-05-21T03:56:37.897Z,7.20
2019-05-21T03:59:06.354Z,7.03
2019-05-21T04:01:35.220Z,7.27
2019-05-21T04:04:04.165Z,7.27
2019-05-21T04:06:50.292Z,6.93
2019-05-21T04:09:05.145Z,6.90
2019-05-21T04:11:53.580Z,6.73
2019-05-21T04:14:33.274Z,7.27
2019-05-21T04:17:06.474Z,6.30
2019-05-21T04:19:42.463Z,7.37
2019-05-21T04:22:12.270Z,6.50
2019-05-21T04:24:41.044Z,6.80
2019-05-21T04:27:10.191Z,6.13
2019-05-21T04:29:38.629Z,6.67
2019-05-21T04:32:07.376Z,6.63
2019-05-21T04:34:36.226Z,6.50
2019-05-21T04:37:10.472Z,5.57
2019-05-21T04:39:35.151Z,6.30
2019-05-21T04:42:04.112Z,6.60
2019-05-21T04:44:34.342Z,5.70
2019-05-21T04:47:02.809Z,6.10
2019-05-21T04:49:32.106Z,5.73
2019-05-21T04:52:03.530Z,5.73
2019-05-21T04:54:32.322Z,6.00
2019-05-21T04:57:04.416Z,6.63
2019-05-21T04:59:53.562Z,5.50
2019-05-21T05:02:22.185Z,6.20
2019-05-21T05:04:52.737Z,5.80
2019-05-21T05:07:28.432Z,6.00
2019-05-21T05:09:52.376Z,5.57
2019-05-21T05:12:22.790Z,6.83
2019-05-21T05:14:53.209Z,6.40
2019-05-21T05:17:23.586Z,5.73
2019-05-21T05:19:52.388Z,5.33
2019-05-21T05:22:21.392Z,6.87
2019-05-21T05:24:50.252Z,5.63
2019-05-21T05:27:19.040Z,6.13
2019-05-21T05:29:48.188Z,6.00
2019-05-21T05:32:16.973Z,6.63
2019-05-21T05:34:45.327Z,6.30
2019-05-21T05:37:14.035Z,5.90
2019-05-21T05:39:43.014Z,5.83
2019-05-21T05:42:11.793Z,5.67
2019-05-21T05:44:41.192Z,5.83
2019-05-21T05:47:10.044Z,6.03
2019-05-21T05:49:48.709Z,5.90
2019-05-21T05:52:17.448Z,6.13
2019-05-21T05:54:46.310Z,5.47
2019-05-21T05:57:15.281Z,6.70
2019-05-21T05:59:43.739Z,6.20
2019-05-21T06:02:12.530Z,6.00
2019-05-21T06:04:41.544Z,6.73
2019-05-21T06:07:09.956Z,6.43
2019-05-21T06:09:38.783Z,6.13
2019-05-21T06:12:07.707Z,6.50
2019-05-21T06:14:36.061Z,6.50
2019-05-21T06:17:04.884Z,6.57
2019-05-21T06:19:33.484Z,5.87
2019-05-21T06:22:03.866Z,7.03
2019-05-21T06:24:32.766Z,6.23
2019-05-21T06:27:01.796Z,6.00
2019-05-21T06:29:30.971Z,6.43
2019-05-21T06:31:59.796Z,6.13
2019-05-21T06:34:29.133Z,6.23
2019-05-21T06:36:57.989Z,5.77
2019-05-21T06:39:26.791Z,6.10
2019-05-21T06:41:55.339Z,6.03
2019-05-21T06:44:24.125Z,5.53
2019-05-21T06:46:52.855Z,7.13
2019-05-21T06:49:21.919Z,6.30
2019-05-21T06:51:50.670Z,6.17
2019-05-21T06:54:19.077Z,5.90
2019-05-21T06:56:47.998Z,5.80
2019-05-21T06:59:16.852Z,5.83
2019-05-21T07:01:45.205Z,6.00
2019-05-21T07:04:13.685Z,6.30
2019-05-21T07:06:44.649Z,5.70
2019-05-21T07:09:12.483Z,5.87
2019-05-21T07:11:41.571Z,5.87
2019-05-21T07:14:10.358Z,5.70
2019-05-21T07:16:39.188Z,5.93
2019-05-21T07:19:07.907Z,6.10
2019-05-21T07:21:36.669Z,5.37
2019-05-21T07:24:07.366Z,5.43
2019-05-21T07:26:35.976Z,5.57
2019-05-21T07:29:04.822Z,5.77
2019-05-21T07:31:33.668Z,6.20
2019-05-21T07:34:02.878Z,5.80
2019-05-21T07:36:33.289Z,5.93
2019-05-21T07:39:04.197Z,7.60
2019-05-21T07:41:33.326Z,6.50
2019-05-21T07:44:02.176Z,5.60
2019-05-21T07:46:30.572Z,6.90
2019-05-21T07:48:59.190Z,5.63
2019-05-21T07:51:28.195Z,5.33
2019-05-21T07:53:56.611Z,5.83
2019-05-21T07:56:25.503Z,6.17
2019-05-21T07:58:54.309Z,5.70
2019-05-21T08:01:24.606Z,5.83
2019-05-21T08:03:53.525Z,6.10
2019-05-21T08:06:22.584Z,6.00
2019-05-21T08:08:51.395Z,5.67
2019-05-21T08:11:20.015Z,5.93
2019-05-21T08:13:48.804Z,6.00
2019-05-21T08:16:17.755Z,6.23
2019-05-21T08:18:46.749Z,5.20
2019-05-21T08:21:15.536Z,5.83
2019-05-21T08:23:44.292Z,6.30
2019-05-21T08:26:13.249Z,6.27
2019-05-21T08:28:42.092Z,5.77
2019-05-21T08:31:10.909Z,5.37
2019-05-21T08:33:39.956Z,6.07
2019-05-21T08:36:08.731Z,5.90
2019-05-21T08:38:37.214Z,6.50
2019-05-21T08:41:06.156Z,6.23
2019-05-21T08:43:34.522Z,6.20
2019-05-21T08:46:03.007Z,5.87
2019-05-21T08:48:31.990Z,5.37
2019-05-21T08:51:03.101Z,5.43
2019-05-21T08:53:31.758Z,6.20
2019-05-21T08:56:00.352Z,6.00
2019-05-21T08:58:29.822Z,6.27
2019-05-21T09:00:58.288Z,5.70
2019-05-21T09:03:27.977Z,5.70
2019-05-21T09:05:58.895Z,6.03
2019-05-21T09:08:27.306Z,6.23
2019-05-21T09:10:55.893Z,5.87
2019-05-21T09:13:24.217Z,5.83
2019-05-21T09:15:52.974Z,5.47
2019-05-21T09:18:21.740Z,5.30
2019-05-21T09:20:50.638Z,6.07
2019-05-21T09:23:19.549Z,5.63
2019-05-21T09:25:49.704Z,6.03
2019-05-21T09:28:18.709Z,5.70
2019-05-21T09:30:48.040Z,5.23
2019-05-21T09:33:16.615Z,5.93
2019-05-21T09:35:44.993Z,5.47
2019-05-21T09:38:13.835Z,6.13
2019-05-21T09:40:42.758Z,6.83
2019-05-21T09:43:11.642Z,6.40
2019-05-21T09:45:40.414Z,6.10
2019-05-21T09:48:09.331Z,5.40
2019-05-21T09:50:38.096Z,5.80
2019-05-21T09:53:06.944Z,5.63
2019-05-21T09:55:35.818Z,5.93
2019-05-21T09:58:11.969Z,5.03
2019-05-21T10:00:42.053Z,5.93
2019-05-21T10:03:15.524Z,5.20
2019-05-21T10:05:44.389Z,5.40
2019-05-21T10:08:12.811Z,5.63
2019-05-21T10:10:41.264Z,5.47
2019-05-21T10:13:10.241Z,4.80
2019-05-21T10:15:38.700Z,5.53
2019-05-21T10:18:07.196Z,5.23
2019-05-21T10:20:35.819Z,5.50
2019-05-21T10:23:04.234Z,5.43
2019-05-21T10:25:33.091Z,5.13
2019-05-21T10:28:01.800Z,5.60
2019-05-21T10:30:32.119Z,5.07
2019-05-21T10:33:01.295Z,5.30
2019-05-21T10:35:30.201Z,5.20
2019-05-21T10:37:58.776Z,5.60
2019-05-21T10:40:27.148Z,4.57
2019-05-21T10:42:56.241Z,4.70
2019-05-21T10:45:27.730Z,5.13
2019-05-21T10:47:56.167Z,4.80
2019-05-21T10:50:26.199Z,5.60
2019-05-21T10:52:55.000Z,5.43
2019-05-21T10:55:24.302Z,4.77
2019-05-21T10:57:53.195Z,5.03
2019-05-21T11:00:23.509Z,4.90
2019-05-21T11:02:57.012Z,4.73
2019-05-21T11:08:23.007Z,5.10
2019-05-21T11:10:34.801Z,4.83
2019-05-21T11:13:05.366Z,4.93
2019-05-21T11:15:34.169Z,5.00
2019-05-21T11:18:11.685Z,4.80
2019-05-21T11:20:33.908Z,4.63
2019-05-21T11:23:02.715Z,4.90
2019-05-21T11:25:33.264Z,4.70
2019-05-21T11:28:06.053Z,4.40
2019-05-21T11:30:34.322Z,6.27
2019-05-21T11:33:04.544Z,5.03
2019-05-21T11:35:36.577Z,4.63
2019-05-21T11:38:05.442Z,4.20
2019-05-21T11:40:55.155Z,5.50
2019-05-21T11:43:26.248Z,5.23
2019-05-21T11:45:55.148Z,5.07
2019-05-21T11:48:24.520Z,5.00
2019-05-21T11:50:53.423Z,5.60
2019-05-21T11:53:22.303Z,4.40
2019-05-21T11:55:51.263Z,4.50
2019-05-21T11:58:20.168Z,4.60
2019-05-21T12:00:49.187Z,4.53
2019-05-21T12:03:18.208Z,4.77
2019-05-21T12:05:47.082Z,4.23
2019-05-21T12:08:15.839Z,4.67
2019-05-21T12:10:45.163Z,4.50
2019-05-21T12:13:14.041Z,4.77
2019-05-21T12:15:42.968Z,4.97
2019-05-21T12:18:11.912Z,5.43
2019-05-21T12:20:40.360Z,4.67
2019-05-21T12:23:09.513Z,4.60
2019-05-21T12:25:38.414Z,4.27
2019-05-21T12:28:10.998Z,3.90
2019-05-21T12:30:37.670Z,5.10
2019-05-21T12:33:06.561Z,4.60
2019-05-21T12:35:35.324Z,4.50
2019-05-21T12:38:04.166Z,4.73
2019-05-21T12:40:32.979Z,4.50
2019-05-21T12:43:03.354Z,4.80
2019-05-21T12:45:35.266Z,5.30
2019-05-21T12:48:04.099Z,4.80
2019-05-21T12:50:32.939Z,5.20
2019-05-21T12:53:02.148Z,4.90
2019-05-21T12:55:30.679Z,5.10
2019-05-21T12:57:59.516Z,4.70
2019-05-21T13:00:32.731Z,5.00
2019-05-21T13:03:01.568Z,5.10
2019-05-21T13:05:30.610Z,4.17
2019-05-21T13:07:59.700Z,4.57
2019-05-21T13:10:28.847Z,4.90
2019-05-21T13:12:57.421Z,5.07
2019-05-21T13:15:28.354Z,5.00
2019-05-21T13:17:56.935Z,4.53
2019-05-21T13:20:26.154Z,5.00
2019-05-21T13:22:55.099Z,5.27
2019-05-21T13:25:23.944Z,4.43
2019-05-21T13:27:52.456Z,4.23
2019-05-21T13:30:22.123Z,4.70
2019-05-21T13:32:50.863Z,4.47
2019-05-21T13:35:19.305Z,4.97
2019-05-21T13:37:47.819Z,6.00
2019-05-21T13:40:17.178Z,5.00
2019-05-21T13:42:45.920Z,5.10
2019-05-21T13:45:15.081Z,5.07
2019-05-21T13:47:43.647Z,4.47
2019-05-21T13:50:11.992Z,5.20
2019-05-21T13:52:40.882Z,5.07
2019-05-21T13:55:09.789Z,5.63
2019-05-21T13:57:38.599Z,4.60
2019-05-21T14:00:11.365Z,4.80
2019-05-21T14:02:39.719Z,4.80
2019-05-21T14:05:09.345Z,4.90
2019-05-21T14:07:38.307Z,4.93
2019-05-21T14:10:15.064Z,4.20
2019-05-21T14:12:38.350Z,4.33
2019-05-21T14:15:08.260Z,5.00
2019-05-21T14:17:36.663Z,4.80
2019-05-21T14:20:06.115Z,5.60
2019-05-21T14:22:36.517Z,4.67
2019-05-21T14:25:09.031Z,4.40
2019-05-21T14:27:44.530Z,4.57
2019-05-21T14:30:09.154Z,4.57
2019-05-21T14:32:38.179Z,4.63
2019-05-21T14:35:07.886Z,4.73
2019-05-21T14:37:36.356Z,4.63
2019-05-21T14:40:09.775Z,5.40
2019-05-21T14:42:38.344Z,4.90
2019-05-21T14:45:08.171Z,5.13
2019-05-21T14:47:37.140Z,5.47
2019-05-21T14:50:07.960Z,5.00
2019-05-21T14:52:36.955Z,5.60
2019-05-21T14:55:09.380Z,5.50
2019-05-21T14:57:37.747Z,5.30
2019-05-21T15:00:08.514Z,4.55
2019-05-21T15:02:37.213Z,5.10
2019-05-21T15:05:08.384Z,4.90
2019-05-21T15:07:36.915Z,4.67
2019-05-21T15:10:06.595Z,5.00
2019-05-21T15:12:35.423Z,4.73
2019-05-21T15:15:05.836Z,4.97
2019-05-21T15:17:35.390Z,5.23
2019-05-21T15:20:16.027Z,5.03
2019-05-21T15:22:44.993Z,4.67
2019-05-21T15:25:13.876Z,4.60
2019-05-21T15:27:42.819Z,5.00
2019-05-21T15:30:12.317Z,4.55
2019-05-21T15:32:40.800Z,5.10
2019-05-21T15:35:09.931Z,4.35
2019-05-21T15:37:45.033Z,5.08
2019-05-21T15:40:12.920Z,5.50
2019-05-21T15:42:41.834Z,5.60
2019-05-21T15:45:11.474Z,5.03
2019-05-21T15:47:39.902Z,5.50
2019-05-21T15:50:11.379Z,5.40
2019-05-21T15:52:40.043Z,5.12
2019-05-21T15:55:08.884Z,4.90
2019-05-21T15:57:37.332Z,4.65
2019-05-21T16:00:07.083Z,4.53
2019-05-21T16:02:35.861Z,4.50
2019-05-21T16:05:05.229Z,4.70
2019-05-21T16:07:34.082Z,4.20
2019-05-21T16:10:03.506Z,4.90
2019-05-21T16:12:33.775Z,4.93
2019-05-21T16:15:04.691Z,4.78
2019-05-21T16:17:33.167Z,5.07
2019-05-21T16:20:04.852Z,5.62
2019-05-21T16:22:33.792Z,4.87
2019-05-21T16:25:04.193Z,4.83
2019-05-21T16:27:33.064Z,5.08
2019-05-21T16:30:01.640Z,4.42
2019-05-21T16:32:30.671Z,5.00
2019-05-21T16:34:59.492Z,5.78
2019-05-21T16:37:28.497Z,5.23
2019-05-21T16:39:57.018Z,5.17
2019-05-21T16:42:25.959Z,5.23
2019-05-21T16:44:54.782Z,5.50
2019-05-21T16:47:23.570Z,7.87
2019-05-21T16:49:52.101Z,6.00
2019-05-21T16:52:21.400Z,4.67
2019-05-21T16:54:50.185Z,5.97
2019-05-21T16:57:19.340Z,6.40
2019-05-21T16:59:47.784Z,6.67
2019-05-21T17:02:16.690Z,5.80
2019-05-21T17:04:45.724Z,5.45
2019-05-21T17:07:14.598Z,5.80
2019-05-21T17:09:43.367Z,6.00
2019-05-21T17:12:12.129Z,5.03
2019-05-21T17:14:43.904Z,4.87
2019-05-21T17:17:12.730Z,4.63
2019-05-21T17:19:41.625Z,4.90
2019-05-21T17:22:10.447Z,4.87
2019-05-21T17:24:39.289Z,5.23
2019-05-21T17:27:07.776Z,5.93
2019-05-21T17:29:36.596Z,4.80
2019-05-21T17:32:06.631Z,4.90
2019-05-21T17:34:35.416Z,5.47
2019-05-21T17:37:03.883Z,5.43
2019-05-21T17:39:32.671Z,5.83
2019-05-21T17:42:14.714Z,7.47
2019-05-21T17:44:33.444Z,7.27
2019-05-21T17:47:02.212Z,5.63
2019-05-21T17:49:30.986Z,5.03
2019-05-21T17:51:59.930Z,5.27
2019-05-21T17:54:29.012Z,5.10
2019-05-21T17:56:59.588Z,5.93
2019-05-21T17:59:31.162Z,5.13
2019-05-21T18:02:01.682Z,4.90
2019-05-21T18:04:31.319Z,5.50
2019-05-21T18:07:01.672Z,4.77
2019-05-21T18:09:30.590Z,4.73
2019-05-21T18:11:59.748Z,5.83
2019-05-21T18:14:29.372Z,5.23
2019-05-21T18:16:59.422Z,4.90
2019-05-21T18:19:29.495Z,4.27
2019-05-21T18:21:58.739Z,4.83
2019-05-21T18:24:27.978Z,5.03
2019-05-21T18:26:56.893Z,4.97
2019-05-21T18:29:25.897Z,5.00
2019-05-21T18:31:54.807Z,4.67
2019-05-21T18:34:23.715Z,6.03
2019-05-21T18:36:52.592Z,5.50
2019-05-21T18:39:21.997Z,5.00
2019-05-21T18:41:57.597Z,4.73
2019-05-21T18:44:26.492Z,4.67
2019-05-21T18:46:55.474Z,5.40
2019-05-21T18:49:27.432Z,4.90
2019-05-21T18:51:54.548Z,4.87
2019-05-21T18:54:23.409Z,4.90
2019-05-21T18:56:52.423Z,5.67
2019-05-21T18:59:21.561Z,5.47
2019-05-21T19:01:49.872Z,5.70
2019-05-21T19:04:18.635Z,5.00
2019-05-21T19:06:47.605Z,4.93
2019-05-21T19:09:16.407Z,5.60
2019-05-21T19:11:45.494Z,5.60
2019-05-21T19:14:14.294Z,5.10
2019-05-21T19:16:43.267Z,4.60
2019-05-21T19:19:12.084Z,5.37
2019-05-21T19:21:42.436Z,4.87
2019-05-21T19:24:11.231Z,5.40
2019-05-21T19:26:39.885Z,5.10
2019-05-21T19:29:08.833Z,5.60
2019-05-21T19:31:37.675Z,5.17
2019-05-21T19:34:06.168Z,5.40
2019-05-21T19:36:35.141Z,5.07
2019-05-21T19:39:04.768Z,5.50
2019-05-21T19:41:33.610Z,5.77
2019-05-21T19:44:02.608Z,5.73
2019-05-21T19:46:31.357Z,5.57
2019-05-21T19:49:02.346Z,5.97
2019-05-21T19:51:30.439Z,5.60
2019-05-21T19:53:59.347Z,5.90
2019-05-21T19:56:29.492Z,6.33
2019-05-21T19:58:58.402Z,5.60
2019-05-21T20:01:27.913Z,5.40
2019-05-21T20:03:57.413Z,5.80
2019-05-21T20:06:27.085Z,5.27
2019-05-21T20:08:57.097Z,6.20
2019-05-21T20:11:25.926Z,5.77
2019-05-21T20:13:54.862Z,5.13
2019-05-21T20:16:25.029Z,6.07
2019-05-21T20:18:54.086Z,5.23
2019-05-21T20:21:23.367Z,6.80
2019-05-21T20:23:52.375Z,6.70
2019-05-21T20:26:23.370Z,6.13
2019-05-21T20:28:52.221Z,5.80
2019-05-21T20:31:23.196Z,6.10
2019-05-21T20:33:53.007Z,5.90
2019-05-21T20:36:22.158Z,6.67
2019-05-21T20:38:51.888Z,6.50
2019-05-21T20:41:21.726Z,6.27
2019-05-21T20:43:58.561Z,5.53
2019-05-21T20:46:21.938Z,6.73
2019-05-21T20:48:50.389Z,6.00
2019-05-21T20:51:19.415Z,6.33
2019-05-21T20:53:48.446Z,5.77
2019-05-21T20:56:18.515Z,6.37
2019-05-21T20:58:47.251Z,6.33
2019-05-21T21:01:16.182Z,6.00
2019-05-21T21:03:45.075Z,6.40
2019-05-21T21:06:14.595Z,6.60
2019-05-21T21:08:44.347Z,6.10
2019-05-21T21:11:14.107Z,5.80
2019-05-21T21:13:43.120Z,5.73
2019-05-21T21:16:12.330Z,6.03
2019-05-21T21:18:41.462Z,6.37
2019-05-21T21:21:10.423Z,5.57
2019-05-21T21:23:40.733Z,6.27
2019-05-21T21:26:09.643Z,5.97
2019-05-21T21:28:38.408Z,6.10
2019-05-21T21:31:08.201Z,6.60
2019-05-21T21:33:37.216Z,6.47
2019-05-21T21:36:06.622Z,6.37
2019-05-21T21:38:36.659Z,5.77
2019-05-21T21:41:07.199Z,5.63
2019-05-21T21:43:36.561Z,6.27
2019-05-21T21:46:05.946Z,5.57
2019-05-21T21:48:35.063Z,6.73
2019-05-21T21:51:04.265Z,6.43
2019-05-21T21:53:33.594Z,6.53
2019-05-21T21:56:02.820Z,6.70
2019-05-21T21:58:31.569Z,5.57
2019-05-21T22:01:16.972Z,5.80
2019-05-21T22:03:45.705Z,5.70
2019-05-21T22:06:17.284Z,5.73
2019-05-21T22:08:46.942Z,5.87
2019-05-21T22:11:16.100Z,6.07
2019-05-21T22:13:45.619Z,6.17
2019-05-21T22:16:14.662Z,6.43
2019-05-21T22:18:43.614Z,6.57
2019-05-21T22:21:12.560Z,5.67
2019-05-21T22:23:41.647Z,5.57
2019-05-21T22:26:10.418Z,5.70
2019-05-21T22:28:38.790Z,6.60
2019-05-21T22:31:08.199Z,6.03
2019-05-21T22:33:37.029Z,6.30
2019-05-21T22:36:05.943Z,5.97
2019-05-21T22:38:34.900Z,6.20
2019-05-21T22:41:03.769Z,6.47
2019-05-21T22:43:32.874Z,6.17
2019-05-21T22:46:02.076Z,6.10
2019-05-21T22:48:31.603Z,5.73
2019-05-21T22:51:00.458Z,5.70
2019-05-21T22:53:29.913Z,5.60
2019-05-21T22:55:58.685Z,5.87
2019-05-21T22:58:27.857Z,5.77
2019-05-21T23:00:58.048Z,6.00
2019-05-21T23:03:28.187Z,6.00
2019-05-21T23:05:57.143Z,6.17
2019-05-21T23:08:26.798Z,6.90
2019-05-21T23:10:55.641Z,6.27
2019-05-21T23:13:24.396Z,6.50
2019-05-21T23:15:53.696Z,7.10
2019-05-21T23:18:22.663Z,6.03
2019-05-21T23:20:53.079Z,6.50
2019-05-21T23:23:24.448Z,5.83
2019-05-21T23:25:54.146Z,6.60
2019-05-21T23:28:23.610Z,6.17
2019-05-21T23:30:52.729Z,6.17
2019-05-21T23:33:21.544Z,6.13
2019-05-21T23:35:49.982Z,6.03
2019-05-21T23:38:20.142Z,6.80
2019-05-21T23:40:49.695Z,5.97
2019-05-21T23:43:19.304Z,6.23
2019-05-21T23:45:48.559Z,5.83
2019-05-21T23:48:18.707Z,6.63
2019-05-21T23:50:47.909Z,6.57
2019-05-21T23:53:17.017Z,6.20
2019-05-21T23:55:46.387Z,6.53
2019-05-21T23:58:15.463Z,6.60
